Time;durP1;ratioP1;P1;durP2;ratioP2;P2;SDS_P1;SDS_P2;PMS_P1;PMS_P2;Temp;Humidity;BMP_temperature;BMP_pressure;BME280_temperature;BME280_humidity;BME280_pressure;Samples;Min_cycle;Max_cycle;Signal;HPM_P1;HPM_P2
2023/09/30 00:00:00;;;;;;;8.75;2.08;;;;;;;;;;5070586;28;20044;-82
2023/09/30 00:02:27;;;;;;;7.60;2.17;;;;;;;;;;5070025;28;20052;-71
2023/09/30 00:04:54;;;;;;;6.22;2.05;;;;;;;;;;5070092;28;20044;-81
2023/09/30 00:07:21;;;;;;;7.07;2.05;;;;;;;;;;5069883;28;20063;-78
2023/09/30 00:09:49;;;;;;;6.60;2.65;;;;;;;;;;5068638;28;20541;-80
2023/09/30 00:12:15;;;;;;;6.82;2.40;;;;;;;;;;5069812;28;20062;-82
2023/09/30 00:14:42;;;;;;;6.50;2.45;;;;;;;;;;5070115;28;20052;-79
2023/09/30 00:17:09;;;;;;;6.28;2.25;;;;;;;;;;5070007;28;20041;-82
2023/09/30 00:19:35;;;;;;;8.57;2.40;;;;;;;;;;5071735;28;20241;-83
2023/09/30 00:22:02;;;;;;;6.15;2.10;;;;;;;;;;5069898;28;20048;-81
2023/09/30 00:24:29;;;;;;;6.63;2.30;;;;;;;;;;5052011;28;20045;-84
2023/09/30 00:26:56;;;;;;;6.28;2.10;;;;;;;;;;5078447;28;20055;-84
2023/09/30 00:29:23;;;;;;;9.85;2.90;;;;;;;;;;5090191;28;20040;-83
2023/09/30 00:31:49;;;;;;;7.07;2.53;;;;;;;;;;5089756;28;20079;-83
2023/09/30 00:34:16;;;;;;;6.93;2.58;;;;;;;;;;5089986;28;20083;-83
2023/09/30 00:36:43;;;;;;;7.60;2.35;;;;;;;;;;5089346;28;20483;-83
2023/09/30 00:39:10;;;;;;;9.52;2.30;;;;;;;;;;5089449;28;20495;-84
2023/09/30 00:41:39;;;;;;;6.32;2.40;;;;;;;;;;5071633;28;20488;-84
2023/09/30 00:44:07;;;;;;;7.78;2.40;;;;;;;;;;5089757;28;20097;-84
2023/09/30 00:46:37;;;;;;;10.75;2.55;;;;;;;;;;5089373;28;20669;-84
2023/09/30 00:49:04;;;;;;;8.18;2.55;;;;;;;;;;5089974;28;20102;-84
2023/09/30 00:51:33;;;;;;;6.18;2.05;;;;;;;;;;5089643;28;20059;-83
2023/09/30 00:54:00;;;;;;;6.03;2.20;;;;;;;;;;5089157;28;20070;-83
2023/09/30 00:56:29;;;;;;;6.97;2.63;;;;;;;;;;5089559;28;20047;-82
2023/09/30 00:58:56;;;;;;;6.93;2.50;;;;;;;;;;5071423;28;20044;-82
2023/09/30 01:01:23;;;;;;;6.32;2.33;;;;;;;;;;5089198;28;20170;-83
2023/09/30 01:03:51;;;;;;;7.13;2.30;;;;;;;;;;5071586;28;20055;-83
2023/09/30 01:06:18;;;;;;;6.50;2.00;;;;;;;;;;5088586;28;20503;-80
2023/09/30 01:08:45;;;;;;;6.55;2.35;;;;;;;;;;5088889;28;20097;-84
2023/09/30 01:11:13;;;;;;;8.05;2.00;;;;;;;;;;5088986;28;20040;-83
2023/09/30 01:13:39;;;;;;;7.07;2.33;;;;;;;;;;5088906;28;20047;-84
2023/09/30 01:16:09;;;;;;;7.50;2.47;;;;;;;;;;5089140;28;20665;-82
2023/09/30 01:18:38;;;;;;;6.80;2.38;;;;;;;;;;5088700;28;20458;-84
2023/09/30 01:21:06;;;;;;;5.65;2.08;;;;;;;;;;5089291;28;20054;-83
2023/09/30 01:23:38;;;;;;;5.80;2.05;;;;;;;;;;5088679;28;20051;-83
2023/09/30 01:26:10;;;;;;;6.32;2.30;;;;;;;;;;5089303;28;20096;-83
2023/09/30 01:28:36;;;;;;;6.53;2.05;;;;;;;;;;5088481;28;20480;-83
2023/09/30 01:31:04;;;;;;;7.78;2.30;;;;;;;;;;5089366;28;20070;-84
2023/09/30 01:33:31;;;;;;;5.95;2.03;;;;;;;;;;5088329;28;20131;-83
2023/09/30 01:36:02;;;;;;;10.27;2.53;;;;;;;;;;5089260;28;20051;-83
2023/09/30 01:38:28;;;;;;;7.45;2.38;;;;;;;;;;5088127;28;20516;-83
2023/09/30 01:40:55;;;;;;;5.82;1.85;;;;;;;;;;5088898;28;20123;-83
2023/09/30 01:43:26;;;;;;;4.78;1.88;;;;;;;;;;5088166;28;20060;-82
2023/09/30 01:45:53;;;;;;;5.55;2.10;;;;;;;;;;5070550;28;20050;-83
2023/09/30 01:48:21;;;;;;;7.70;2.42;;;;;;;;;;5088664;28;20123;-83
2023/09/30 01:50:48;;;;;;;6.50;2.10;;;;;;;;;;5088712;28;20389;-83
2023/09/30 01:53:15;;;;;;;5.57;1.92;;;;;;;;;;5087945;28;20507;-84
2023/09/30 01:55:41;;;;;;;5.55;1.83;;;;;;;;;;5089058;28;20048;-83
2023/09/30 01:58:10;;;;;;;6.78;2.05;;;;;;;;;;5070424;28;20044;-83
2023/09/30 02:00:37;;;;;;;5.63;2.20;;;;;;;;;;5088416;28;20091;-83
2023/09/30 02:03:04;;;;;;;5.30;2.25;;;;;;;;;;5088364;28;20090;-83
2023/09/30 02:05:31;;;;;;;6.20;2.25;;;;;;;;;;5088470;28;20055;-84
2023/09/30 02:07:58;;;;;;;7.90;2.47;;;;;;;;;;5087805;28;20488;-85
2023/09/30 02:10:24;;;;;;;7.47;2.15;;;;;;;;;;5088518;28;20443;-85
2023/09/30 02:12:51;;;;;;;5.88;2.45;;;;;;;;;;5088351;28;20082;-85
2023/09/30 02:15:18;;;;;;;5.50;1.85;;;;;;;;;;5088807;28;20109;-85
2023/09/30 02:17:45;;;;;;;5.50;2.08;;;;;;;;;;5091174;28;20127;-85
2023/09/30 02:20:15;;;;;;;5.30;1.83;;;;;;;;;;5092692;28;20056;-85
2023/09/30 02:22:44;;;;;;;5.47;2.10;;;;;;;;;;5092424;28;20111;-85
2023/09/30 02:25:12;;;;;;;4.25;1.88;;;;;;;;;;5092233;28;20083;-84
2023/09/30 02:27:41;;;;;;;7.28;2.17;;;;;;;;;;5092219;28;20051;-84
2023/09/30 02:30:14;;;;;;;6.05;1.75;;;;;;;;;;5092602;28;20066;-84
2023/09/30 02:32:41;;;;;;;7.18;2.03;;;;;;;;;;5092358;28;20048;-83
2023/09/30 02:35:12;;;;;;;4.97;2.35;;;;;;;;;;5092608;28;20048;-84
2023/09/30 02:37:40;;;;;;;6.88;2.28;;;;;;;;;;5091886;28;20568;-84
2023/09/30 02:40:09;;;;;;;4.78;1.98;;;;;;;;;;5073946;28;20071;-84
2023/09/30 02:42:40;;;;;;;6.15;1.80;;;;;;;;;;5092326;28;20040;-84
2023/09/30 02:45:10;;;;;;;;;;;;;;;;;;5074417;28;20490;-84
2023/09/30 02:47:38;;;;;;;6.28;2.15;;;;;;;;;;5092316;28;19927;-83
2023/09/30 02:50:13;;;;;;;4.85;2.10;;;;;;;;;;5092338;28;20044;-84
2023/09/30 02:52:40;;;;;;;7.95;2.28;;;;;;;;;;5092014;28;20044;-83
2023/09/30 02:55:11;;;;;;;6.57;1.90;;;;;;;;;;5073662;28;20163;-82
2023/09/30 02:57:39;;;;;;;4.53;1.90;;;;;;;;;;5091969;28;20044;-85
2023/09/30 03:00:23;;;;;;;5.57;2.08;;;;;;;;;;5091368;28;20633;-84
2023/09/30 03:02:53;;;;;;;6.88;2.08;;;;;;;;;;5091610;28;20136;-84
2023/09/30 03:05:20;;;;;;;7.82;2.20;;;;;;;;;;5091901;28;20059;-81
2023/09/30 03:07:47;;;;;;;5.22;2.05;;;;;;;;;;5091826;28;20378;-84
2023/09/30 03:10:19;;;;;;;7.55;2.22;;;;;;;;;;5091634;28;20071;-84
2023/09/30 03:12:47;;;;;;;6.82;2.25;;;;;;;;;;5091376;28;20577;-83
2023/09/30 03:15:15;;;;;;;6.03;2.08;;;;;;;;;;5091465;28;20601;-84
2023/09/30 03:17:43;;;;;;;6.90;2.33;;;;;;;;;;5091618;28;20056;-83
2023/09/30 03:20:14;;;;;;;7.03;2.00;;;;;;;;;;5091333;28;20044;-82
2023/09/30 03:22:42;;;;;;;6.80;2.30;;;;;;;;;;5091819;28;20040;-83
2023/09/30 03:25:17;;;;;;;7.85;2.42;;;;;;;;;;5090613;28;20069;-84
2023/09/30 03:27:48;;;;;;;8.13;2.28;;;;;;;;;;5091187;28;20056;-84
2023/09/30 03:30:15;;;;;;;;;;;;;;;;;;5090738;28;20062;-84
2023/09/30 03:32:43;;;;;;;4.72;1.92;;;;;;;;;;5091584;28;20027;-84
2023/09/30 03:35:10;;;;;;;5.25;2.28;;;;;;;;;;5090704;28;20044;-82
2023/09/30 03:37:37;;;;;;;5.22;1.70;;;;;;;;;;5091139;28;20044;-84
2023/09/30 03:40:12;;;;;;;6.28;2.20;;;;;;;;;;5090412;28;20064;-84
2023/09/30 03:42:43;;;;;;;7.00;1.90;;;;;;;;;;5091156;28;20046;-84
2023/09/30 03:45:10;;;;;;;4.03;1.70;;;;;;;;;;5090643;28;20044;-83
2023/09/30 03:47:38;;;;;;;6.22;2.25;;;;;;;;;;5091019;28;20127;-84
2023/09/30 03:50:05;;;;;;;4.40;1.90;;;;;;;;;;5090570;28;20055;-83
2023/09/30 03:52:34;;;;;;;5.70;1.90;;;;;;;;;;5090866;28;20047;-83
2023/09/30 03:55:04;;;;;;;7.05;2.47;;;;;;;;;;5090006;28;20491;-83
2023/09/30 03:57:33;;;;;;;4.75;1.70;;;;;;;;;;5091069;28;20123;-83
2023/09/30 04:00:01;;;;;;;8.63;2.08;;;;;;;;;;5090417;28;20506;-83
2023/09/30 04:02:27;;;;;;;6.22;1.90;;;;;;;;;;5090934;28;20059;-83
2023/09/30 04:04:55;;;;;;;4.60;1.90;;;;;;;;;;5090264;28;20048;-83
2023/09/30 04:07:27;;;;;;;6.20;2.00;;;;;;;;;;5090488;28;20051;-84
2023/09/30 04:09:55;;;;;;;6.35;1.85;;;;;;;;;;5089816;28;20040;-83
2023/09/30 04:12:25;;;;;;;8.15;2.25;;;;;;;;;;5090480;28;20066;-84
2023/09/30 04:14:53;;;;;;;6.15;1.70;;;;;;;;;;5090322;28;20048;-81
2023/09/30 04:17:19;;;;;;;5.97;2.05;;;;;;;;;;5072266;28;20044;-81
2023/09/30 04:19:46;;;;;;;5.55;1.77;;;;;;;;;;5090227;28;20048;-78
2023/09/30 04:22:13;;;;;;;3.92;1.90;;;;;;;;;;5090545;28;20044;-83
2023/09/30 04:24:39;;;;;;;5.32;1.85;;;;;;;;;;5089911;28;20048;-80
2023/09/30 04:27:07;;;;;;;5.22;1.80;;;;;;;;;;5090190;28;20254;-82
2023/09/30 04:29:34;;;;;;;6.80;2.15;;;;;;;;;;5089977;28;20048;-83
2023/09/30 04:32:01;;;;;;;5.78;2.00;;;;;;;;;;5090274;28;20052;-83
2023/09/30 04:34:28;;;;;;;5.70;1.83;;;;;;;;;;5089256;28;20087;-73
2023/09/30 04:36:54;;;;;;;6.10;2.10;;;;;;;;;;5089827;28;20050;-82
2023/09/30 04:39:21;;;;;;;5.63;1.90;;;;;;;;;;5089551;28;20051;-79
2023/09/30 04:41:48;;;;;;;4.07;2.00;;;;;;;;;;5071952;28;20044;-83
2023/09/30 04:44:15;;;;;;;5.70;2.17;;;;;;;;;;5071496;28;20085;-82
2023/09/30 04:46:45;;;;;;;5.75;2.05;;;;;;;;;;5089727;28;20044;-81
2023/09/30 04:49:15;;;;;;;6.55;2.10;;;;;;;;;;5071217;28;20131;-83
2023/09/30 04:51:42;;;;;;;4.33;1.90;;;;;;;;;;5090002;28;20040;-83
2023/09/30 04:54:09;;;;;;;5.57;1.80;;;;;;;;;;5089311;28;20044;-81
2023/09/30 04:56:35;;;;;;;6.65;2.00;;;;;;;;;;5089411;28;20105;-81
2023/09/30 04:59:04;;;;;;;5.18;2.20;;;;;;;;;;5089217;28;20427;-83
2023/09/30 05:01:31;;;;;;;6.30;2.22;;;;;;;;;;5089348;28;20040;-82
2023/09/30 05:03:58;;;;;;;5.00;1.92;;;;;;;;;;5089636;28;20128;-82
2023/09/30 05:06:26;;;;;;;3.88;1.70;;;;;;;;;;5089456;28;20181;-83
2023/09/30 05:08:55;;;;;;;5.18;2.08;;;;;;;;;;5088880;28;20488;-82
2023/09/30 05:11:21;;;;;;;4.47;2.03;;;;;;;;;;5089260;28;20051;-83
2023/09/30 05:13:48;;;;;;;4.95;2.15;;;;;;;;;;5089313;28;20047;-84
2023/09/30 05:16:16;;;;;;;6.63;2.40;;;;;;;;;;5088850;28;20056;-83
2023/09/30 05:18:43;;;;;;;7.32;2.30;;;;;;;;;;5089656;28;20101;-83
2023/09/30 05:21:10;;;;;;;7.50;2.50;;;;;;;;;;5088403;28;20415;-83
2023/09/30 05:23:38;;;;;;;6.40;2.33;;;;;;;;;;5089164;28;20062;-83
2023/09/30 05:26:05;;;;;;;5.25;2.00;;;;;;;;;;5089135;28;20048;-83
2023/09/30 05:28:32;;;;;;;4.07;2.10;;;;;;;;;;5089372;28;20621;-83
2023/09/30 05:30:58;;;;;;;5.65;2.08;;;;;;;;;;5088691;28;20048;-84
2023/09/30 05:33:27;;;;;;;8.30;2.28;;;;;;;;;;5089226;28;20246;-83
2023/09/30 05:35:54;;;;;;;5.82;1.80;;;;;;;;;;5088774;28;20125;-81
2023/09/30 05:38:23;;;;;;;7.80;2.15;;;;;;;;;;5088658;28;20046;-83
2023/09/30 05:40:49;;;;;;;5.13;1.98;;;;;;;;;;5088820;28;20044;-83
2023/09/30 05:43:16;;;;;;;4.50;1.70;;;;;;;;;;5088606;28;20416;-83
2023/09/30 05:45:49;;;;;;;5.70;1.88;;;;;;;;;;5088770;28;20055;-83
2023/09/30 05:48:16;;;;;;;6.43;2.17;;;;;;;;;;5088825;28;20132;-84
2023/09/30 05:50:43;;;;;;;5.93;1.95;;;;;;;;;;5089043;28;20052;-83
2023/09/30 05:53:10;;;;;;;4.88;1.70;;;;;;;;;;5088448;28;20083;-83
2023/09/30 05:55:38;;;;;;;4.00;1.90;;;;;;;;;;5088546;28;20052;-83
2023/09/30 05:58:05;;;;;;;5.82;2.20;;;;;;;;;;5088446;28;20040;-80
2023/09/30 06:00:35;;;;;;;5.53;2.15;;;;;;;;;;5088470;28;20044;-82
2023/09/30 06:03:05;;;;;;;5.23;1.90;;;;;;;;;;5088464;28;20434;-83
2023/09/30 06:05:33;;;;;;;5.57;1.83;;;;;;;;;;5088358;28;20295;-83
2023/09/30 06:08:03;;;;;;;6.00;1.77;;;;;;;;;;5088747;28;20134;-81
2023/09/30 06:10:31;;;;;;;5.03;2.00;;;;;;;;;;5087872;28;20052;-83
2023/09/30 06:12:58;;;;;;;5.35;1.90;;;;;;;;;;5088623;28;20101;-81
2023/09/30 06:15:25;;;;;;;5.38;2.03;;;;;;;;;;5088202;28;20466;-81
2023/09/30 06:17:54;;;;;;;5.03;1.88;;;;;;;;;;5088667;28;20083;-83
2023/09/30 06:20:22;;;;;;;7.55;1.90;;;;;;;;;;5088010;28;20511;-82
2023/09/30 06:22:49;;;;;;;6.35;1.90;;;;;;;;;;5088039;28;20048;-80
2023/09/30 06:25:17;;;;;;;5.43;1.63;;;;;;;;;;5070223;28;20458;-83
2023/09/30 06:27:44;;;;;;;5.68;1.92;;;;;;;;;;5088603;28;20055;-83
2023/09/30 06:30:15;;;;;;;6.38;2.13;;;;;;;;;;5088050;28;20071;-80
2023/09/30 06:32:43;;;;;;;7.25;2.00;;;;;;;;;;5088477;28;20040;-83
2023/09/30 06:35:11;;;;;;;4.38;1.67;;;;;;;;;;5087795;28;20055;-82
2023/09/30 06:37:39;;;;;;;5.38;1.92;;;;;;;;;;5088556;28;20051;-82
2023/09/30 06:40:08;;;;;;;5.90;1.80;;;;;;;;;;5087985;28;20049;-83
2023/09/30 06:42:36;;;;;;;8.23;1.83;;;;;;;;;;5070443;28;20510;-82
2023/09/30 06:45:07;;;;;;;4.97;2.00;;;;;;;;;;5087952;28;20412;-83
2023/09/30 06:47:36;;;;;;;4.85;1.90;;;;;;;;;;5076650;28;20751;-82
2023/09/30 06:50:07;;;;;;;4.80;2.00;;;;;;;;;;5067962;28;20044;-83
2023/09/30 06:52:35;;;;;;;4.50;1.70;;;;;;;;;;5067828;28;20451;-83
2023/09/30 06:55:04;;;;;;;5.10;1.88;;;;;;;;;;5067717;28;20128;-82
2023/09/30 06:57:36;;;;;;;5.78;2.03;;;;;;;;;;5070713;28;20103;-83
2023/09/30 07:00:11;;;;;;;6.60;1.83;;;;;;;;;;5050174;28;20044;-83
2023/09/30 07:02:39;;;;;;;4.78;1.98;;;;;;;;;;5067593;28;20084;-83
2023/09/30 07:05:09;;;;;;;4.57;2.22;;;;;;;;;;5070504;28;20087;-83
2023/09/30 07:07:36;;;;;;;;;;;;;;;;;;5072235;28;20040;-83
2023/09/30 07:10:05;;;;;;;5.15;1.85;;;;;;;;;;5070815;28;20311;-83
2023/09/30 07:12:35;;;;;;;3.70;1.90;;;;;;;;;;5073493;28;20048;-81
2023/09/30 07:15:04;;;;;;;7.03;2.25;;;;;;;;;;5071673;28;20052;-78
2023/09/30 07:17:31;;;;;;;5.38;1.70;;;;;;;;;;5071072;28;20076;-78
2023/09/30 07:19:58;;;;;;;5.93;2.05;;;;;;;;;;5087167;28;20437;-77
2023/09/30 07:22:26;;;;;;;6.45;1.92;;;;;;;;;;5091008;28;20052;-78
2023/09/30 07:25:14;;;;;;;4.65;1.60;;;;;;;;;;5091456;28;20127;-78
2023/09/30 07:27:43;;;;;;;6.47;2.30;;;;;;;;;;5073371;28;20044;-77
2023/09/30 07:30:12;;;;;;;5.05;2.20;;;;;;;;;;5091216;28;20068;-77
2023/09/30 07:32:38;;;;;;;4.10;1.98;;;;;;;;;;5091311;28;20044;-82
2023/09/30 07:35:06;;;;;;;4.45;2.08;;;;;;;;;;5093640;28;20127;-76
2023/09/30 07:37:33;;;;;;;4.85;1.98;;;;;;;;;;5091328;28;20072;-78
2023/09/30 07:40:00;;;;;;;6.25;1.92;;;;;;;;;;5090758;28;20044;-79
2023/09/30 07:42:27;;;;;;;6.82;1.90;;;;;;;;;;5090588;28;20044;-77
2023/09/30 07:44:54;;;;;;;3.70;1.83;;;;;;;;;;5091469;28;20048;-86
2023/09/30 07:47:21;;;;;;;6.10;1.92;;;;;;;;;;5091350;28;20055;-83
2023/09/30 07:49:48;;;;;;;5.53;2.08;;;;;;;;;;5091345;28;20040;-85
2023/09/30 07:52:15;;;;;;;4.32;1.95;;;;;;;;;;5082782;28;20040;-75
2023/09/30 07:54:42;;;;;;;3.53;1.75;;;;;;;;;;5055233;28;20045;-72
2023/09/30 07:57:08;;;;;;;6.70;1.80;;;;;;;;;;5090817;28;20071;-72
2023/09/30 07:59:36;;;;;;;5.90;2.15;;;;;;;;;;5083461;28;20048;-78
2023/09/30 08:02:04;;;;;;;5.47;2.35;;;;;;;;;;5070525;28;20049;-71
2023/09/30 08:04:31;;;;;;;7.65;2.28;;;;;;;;;;5070175;28;20063;-71
2023/09/30 08:06:58;;;;;;;4.10;1.83;;;;;;;;;;5069441;28;20056;-81
2023/09/30 08:09:25;;;;;;;6.03;1.85;;;;;;;;;;5069664;28;20045;-80
2023/09/30 08:11:56;;;;;;;5.63;2.00;;;;;;;;;;5070315;28;20044;-93
2023/09/30 08:14:22;;;;;;;5.90;2.20;;;;;;;;;;5059302;28;20036;-89
2023/09/30 08:16:49;;;;;;;9.13;2.40;;;;;;;;;;5084548;28;20063;-90
2023/09/30 08:19:16;;;;;;;6.13;2.17;;;;;;;;;;5081703;28;20048;-92
2023/09/30 08:21:43;;;;;;;6.65;2.22;;;;;;;;;;5074451;28;20118;-90
2023/09/30 08:24:10;;;;;;;5.45;2.10;;;;;;;;;;5079645;28;20115;-88
2023/09/30 08:26:37;;;;;;;6.07;2.20;;;;;;;;;;5103140;28;20062;-92
2023/09/30 08:29:04;;;;;;;5.93;2.35;;;;;;;;;;5102263;28;20052;-78
2023/09/30 08:31:31;;;;;;;7.50;2.50;;;;;;;;;;5092611;28;20135;-90
2023/09/30 08:33:57;;;;;;;4.97;1.95;;;;;;;;;;5079765;28;20087;-92
2023/09/30 08:36:24;;;;;;;6.03;2.42;;;;;;;;;;5078907;28;20434;-82
2023/09/30 08:38:51;;;;;;;6.40;2.42;;;;;;;;;;5063580;28;20275;-88
2023/09/30 08:41:38;;;;;;;5.43;2.15;;;;;;;;;;5088323;28;20040;-86
2023/09/30 08:44:05;;;;;;;8.48;2.25;;;;;;;;;;5086986;28;20122;-83
2023/09/30 08:46:34;;;;;;;6.80;2.33;;;;;;;;;;5101002;28;20044;-86
2023/09/30 08:49:03;;;;;;;4.75;2.00;;;;;;;;;;5088891;28;20059;-85
2023/09/30 08:51:31;;;;;;;6.53;2.50;;;;;;;;;;5080622;28;20040;-85
2023/09/30 08:53:59;;;;;;;7.25;2.20;;;;;;;;;;5080454;28;20044;-86
2023/09/30 08:56:32;;;;;;;5.80;2.40;;;;;;;;;;5083952;28;20061;-82
2023/09/30 08:59:00;;;;;;;6.40;2.33;;;;;;;;;;5101103;28;20213;-86
2023/09/30 09:01:29;;;;;;;6.88;2.20;;;;;;;;;;5100047;28;20115;-82
2023/09/30 09:03:56;;;;;;;7.35;1.95;;;;;;;;;;5100217;28;20044;-82
2023/09/30 09:06:24;;;;;;;6.65;2.35;;;;;;;;;;5100317;28;20111;-76
2023/09/30 09:08:51;;;;;;;7.07;2.45;;;;;;;;;;5082331;28;20240;-83
2023/09/30 09:11:18;;;;;;;6.35;2.17;;;;;;;;;;5101107;28;20050;-84
2023/09/30 09:13:49;;;;;;;7.15;2.30;;;;;;;;;;5100700;28;20236;-86
2023/09/30 09:16:20;;;;;;;7.75;2.20;;;;;;;;;;5101011;28;20079;-81
2023/09/30 09:18:47;;;;;;;4.70;2.00;;;;;;;;;;5100965;28;20044;-83
2023/09/30 09:21:17;;;;;;;7.30;2.35;;;;;;;;;;5100233;28;20051;-84
2023/09/30 09:23:46;;;;;;;4.82;1.95;;;;;;;;;;5100250;28;20375;-82
2023/09/30 09:26:23;;;;;;;5.15;2.08;;;;;;;;;;5099591;28;20050;-85
2023/09/30 09:28:55;;;;;;;5.40;2.05;;;;;;;;;;5100523;28;20083;-84
2023/09/30 09:31:23;;;;;;;6.45;2.13;;;;;;;;;;5098458;28;20141;-85
2023/09/30 09:33:51;;;;;;;5.35;2.00;;;;;;;;;;5101166;28;20403;-90
2023/09/30 09:36:19;;;;;;;6.07;2.08;;;;;;;;;;5108983;28;20119;-87
2023/09/30 09:38:53;;;;;;;4.85;2.10;;;;;;;;;;5098095;28;20054;-87
2023/09/30 09:41:20;;;;;;;6.00;2.08;;;;;;;;;;5089486;28;20073;-81
2023/09/30 09:43:53;;;;;;;4.90;1.67;;;;;;;;;;5088797;28;20055;-80
2023/09/30 09:46:20;;;;;;;4.50;1.80;;;;;;;;;;5089085;28;20044;-81
2023/09/30 09:48:47;;;;;;;5.03;1.83;;;;;;;;;;5088379;28;20119;-81
2023/09/30 09:51:14;;;;;;;4.20;1.90;;;;;;;;;;5090397;28;20040;-81
2023/09/30 09:53:41;;;;;;;5.20;1.75;;;;;;;;;;5088966;28;20040;-80
2023/09/30 09:56:10;;;;;;;6.20;1.80;;;;;;;;;;5088875;28;20058;-80
2023/09/30 09:58:43;;;;;;;4.07;1.75;;;;;;;;;;5088668;28;20048;-82
2023/09/30 10:01:10;;;;;;;5.32;1.80;;;;;;;;;;5095274;28;20343;-79
2023/09/30 10:03:41;;;;;;;5.68;1.63;;;;;;;;;;5099791;28;20075;-81
2023/09/30 10:06:09;;;;;;;5.30;1.90;;;;;;;;;;5100069;28;20075;-80
2023/09/30 10:08:40;;;;;;;4.78;1.73;;;;;;;;;;5099608;28;20075;-80
2023/09/30 10:11:07;;;;;;;5.35;2.15;;;;;;;;;;5099890;28;20333;-81
2023/09/30 10:13:52;;;;;;;3.95;1.52;;;;;;;;;;5090946;28;20416;-86
2023/09/30 10:16:34;;;;;;;4.65;1.40;;;;;;;;;;5071608;28;20079;-75
2023/09/30 10:19:24;;;;;;;3.13;1.20;;;;;;;;;;5070895;28;20040;-77
2023/09/30 10:22:22;;;;;;;4.27;1.70;;;;;;;;;;5088732;28;20048;-79
2023/09/30 10:24:53;;;;;;;3.20;1.38;;;;;;;;;;5094494;28;20080;-82
2023/09/30 10:27:28;;;;;;;2.83;1.42;;;;;;;;;;5088278;28;20048;-85
2023/09/30 10:30:02;;;;;;;8.40;1.40;;;;;;;;;;5089681;28;20044;-84
2023/09/30 10:32:51;;;;;;;3.40;1.40;;;;;;;;;;5094409;28;20111;-85
2023/09/30 10:35:19;;;;;;;2.67;1.17;;;;;;;;;;5089793;28;20074;-84
2023/09/30 10:37:45;;;;;;;3.30;1.33;;;;;;;;;;5093530;28;20048;-86
2023/09/30 10:40:29;;;;;;;3.28;1.40;;;;;;;;;;5096126;28;20175;-78
2023/09/30 10:42:57;;;;;;;3.92;1.40;;;;;;;;;;5092252;28;20131;-86
2023/09/30 10:45:39;;;;;;;4.70;1.40;;;;;;;;;;5071924;28;20036;-82
2023/09/30 10:48:24;;;;;;;3.65;1.33;;;;;;;;;;5085629;28;20390;-80
2023/09/30 10:50:52;;;;;;;2.78;1.35;;;;;;;;;;5096281;28;20036;-92
2023/09/30 10:53:19;;;;;;;4.45;1.50;;;;;;;;;;5097462;28;20058;-91
2023/09/30 10:55:46;;;;;;;3.88;1.50;;;;;;;;;;5090517;28;20091;-90
2023/09/30 10:58:13;;;;;;;4.43;1.40;;;;;;;;;;5084422;28;20112;-83
2023/09/30 11:00:52;;;;;;;2.80;1.40;;;;;;;;;;5070531;28;20060;-93
2023/09/30 11:03:22;;;;;;;3.03;1.48;;;;;;;;;;5099001;28;20060;-92
2023/09/30 11:05:52;;;;;;;5.03;1.58;;;;;;;;;;5102171;28;20052;-84
2023/09/30 11:08:39;;;;;;;3.53;1.40;;;;;;;;;;5088835;28;20045;-85
2023/09/30 11:11:07;;;;;;;2.90;1.30;;;;;;;;;;5082249;28;20051;-84
2023/09/30 11:13:36;;;;;;;2.88;1.25;;;;;;;;;;5102453;28;20326;-84
2023/09/30 11:16:08;;;;;;;2.72;1.30;;;;;;;;;;5103105;28;20052;-80
2023/09/30 11:18:37;;;;;;;3.72;1.27;;;;;;;;;;5101572;28;20044;-85
2023/09/30 11:21:12;;;;;;;2.17;1.08;;;;;;;;;;5082922;28;20103;-84
2023/09/30 11:23:41;;;;;;;2.17;1.20;;;;;;;;;;5082221;28;20332;-84
2023/09/30 11:26:08;;;;;;;2.60;1.17;;;;;;;;;;5082401;28;20051;-84
2023/09/30 11:28:43;;;;;;;3.22;1.33;;;;;;;;;;5082351;28;20340;-85
2023/09/30 11:31:15;;;;;;;1.77;1.00;;;;;;;;;;5081723;28;20047;-90
2023/09/30 11:33:50;;;;;;;2.40;1.08;;;;;;;;;;5082322;28;20486;-88
2023/09/30 11:36:19;;;;;;;4.45;1.30;;;;;;;;;;5083075;28;20059;-79
2023/09/30 11:38:48;;;;;;;1.92;1.02;;;;;;;;;;5082097;28;20052;-87
2023/09/30 11:41:17;;;;;;;1.67;0.95;;;;;;;;;;5082634;28;20051;-83
2023/09/30 11:44:04;;;;;;;2.42;1.27;;;;;;;;;;5082097;28;20364;-88
2023/09/30 11:46:33;;;;;;;2.75;1.15;;;;;;;;;;5081728;28;20040;-83
2023/09/30 11:49:02;;;;;;;3.47;1.38;;;;;;;;;;5081286;28;20080;-86
2023/09/30 11:51:31;;;;;;;2.45;1.27;;;;;;;;;;5063338;28;20055;-86
2023/09/30 11:54:01;;;;;;;3.00;1.10;;;;;;;;;;5081616;28;20210;-86
2023/09/30 11:56:30;;;;;;;;;;;;;;;;;;5083059;28;20054;-87
2023/09/30 11:58:58;;;;;;;3.33;1.05;;;;;;;;;;5080499;28;19939;-87
2023/09/30 12:01:25;;;;;;;4.72;1.50;;;;;;;;;;5078352;28;20512;-78
2023/09/30 12:03:54;;;;;;;3.35;1.30;;;;;;;;;;5081663;28;20090;-80
2023/09/30 12:06:24;;;;;;;3.72;1.20;;;;;;;;;;5080770;28;20444;-80
2023/09/30 12:08:51;;;;;;;2.55;1.30;;;;;;;;;;5079844;28;20067;-79
2023/09/30 12:11:18;;;;;;;2.08;1.20;;;;;;;;;;5079028;28;20071;-87
2023/09/30 12:13:48;;;;;;;2.63;1.27;;;;;;;;;;5075690;28;20251;-84
2023/09/30 12:16:15;;;;;;;2.47;1.20;;;;;;;;;;5078816;28;20052;-83
2023/09/30 12:18:42;;;;;;;2.35;1.10;;;;;;;;;;5076863;28;20301;-78
2023/09/30 12:21:10;;;;;;;2.42;1.10;;;;;;;;;;5071137;28;20138;-86
2023/09/30 12:23:37;;;;;;;4.30;1.30;;;;;;;;;;5069544;28;20447;-81
2023/09/30 12:26:05;;;;;;;3.17;1.40;;;;;;;;;;5076909;28;20051;-86
2023/09/30 12:28:40;;;;;;;3.33;1.48;;;;;;;;;;5070873;28;20048;-76
2023/09/30 12:31:07;;;;;;;3.15;1.30;;;;;;;;;;5069977;28;20044;-78
2023/09/30 12:33:34;;;;;;;3.80;1.33;;;;;;;;;;5070759;28;20052;-78
2023/09/30 12:36:01;;;;;;;4.68;2.25;;;;;;;;;;5069790;28;20045;-74
2023/09/30 12:38:28;;;;;;;3.97;1.42;;;;;;;;;;5073119;28;20131;-79
2023/09/30 12:40:55;;;;;;;2.80;1.00;;;;;;;;;;5080585;28;20048;-83
2023/09/30 12:43:22;;;;;;;2.72;1.15;;;;;;;;;;5059367;28;20102;-73
2023/09/30 12:45:49;;;;;;;2.85;1.23;;;;;;;;;;5082814;28;20082;-86
2023/09/30 12:48:17;;;;;;;2.15;1.20;;;;;;;;;;5082801;28;20044;-92
2023/09/30 12:50:44;;;;;;;2.10;1.02;;;;;;;;;;5081923;28;20049;-89
2023/09/30 12:53:11;;;;;;;2.53;1.20;;;;;;;;;;5075651;28;20053;-92
2023/09/30 12:55:37;;;;;;;3.28;1.00;;;;;;;;;;5080209;28;20054;-93
2023/09/30 12:58:04;;;;;;;2.45;1.17;;;;;;;;;;5097946;28;20044;-88
2023/09/30 13:00:32;;;;;;;2.80;1.13;;;;;;;;;;5101038;28;20119;-81
2023/09/30 13:03:03;;;;;;;2.10;1.20;;;;;;;;;;5079440;28;20426;-83
2023/09/30 13:05:30;;;;;;;2.20;1.10;;;;;;;;;;5080593;28;20049;-84
2023/09/30 13:07:57;;;;;;;2.08;1.00;;;;;;;;;;5080111;28;20079;-86
2023/09/30 13:10:24;;;;;;;2.42;1.20;;;;;;;;;;5080358;28;20044;-89
2023/09/30 13:12:53;;;;;;;1.92;1.10;;;;;;;;;;5080735;28;20048;-91
2023/09/30 13:15:21;;;;;;;2.20;1.20;;;;;;;;;;5063592;28;20142;-83
2023/09/30 13:17:48;;;;;;;2.08;1.10;;;;;;;;;;5074560;28;20124;-74
2023/09/30 13:20:14;;;;;;;2.67;1.17;;;;;;;;;;5076143;28;20044;-90
2023/09/30 13:22:41;;;;;;;2.72;1.20;;;;;;;;;;5098052;28;20574;-78
2023/09/30 13:25:08;;;;;;;2.08;1.08;;;;;;;;;;5101085;28;20105;-91
2023/09/30 13:27:35;;;;;;;1.90;1.08;;;;;;;;;;5100036;28;20052;-92
2023/09/30 13:30:02;;;;;;;2.40;1.30;;;;;;;;;;5100948;28;20103;-80
2023/09/30 13:32:30;;;;;;;1.77;1.05;;;;;;;;;;5101464;28;20067;-91
2023/09/30 13:34:57;;;;;;;2.10;1.10;;;;;;;;;;5101997;28;20051;-91
2023/09/30 13:37:29;;;;;;;2.58;1.10;;;;;;;;;;5101627;28;20048;-91
2023/09/30 13:39:56;;;;;;;2.22;1.20;;;;;;;;;;5097024;28;20066;-79
2023/09/30 13:42:23;;;;;;;4.65;1.38;;;;;;;;;;5095664;28;20615;-75
2023/09/30 13:44:50;;;;;;;2.78;1.10;;;;;;;;;;5093141;28;20048;-83
2023/09/30 13:47:16;;;;;;;1.55;1.15;;;;;;;;;;5100190;28;20079;-78
2023/09/30 13:49:43;;;;;;;1.33;0.82;;;;;;;;;;5097397;28;20090;-81
2023/09/30 13:52:10;;;;;;;2.45;1.40;;;;;;;;;;5100186;28;20050;-85
2023/09/30 13:54:36;;;;;;;2.25;1.10;;;;;;;;;;5098478;28;20044;-84
2023/09/30 13:57:03;;;;;;;2.22;1.15;;;;;;;;;;5096670;28;20047;-86
2023/09/30 13:59:34;;;;;;;3.03;1.00;;;;;;;;;;5093439;28;20045;-81
2023/09/30 14:02:01;;;;;;;2.97;1.23;;;;;;;;;;5081940;28;20488;-81
2023/09/30 14:04:31;;;;;;;1.77;1.00;;;;;;;;;;5076706;28;20075;-83
2023/09/30 14:07:02;;;;;;;2.95;1.10;;;;;;;;;;5088905;28;20137;-82
2023/09/30 14:09:29;;;;;;;1.95;1.00;;;;;;;;;;5080355;28;20408;-82
2023/09/30 14:12:04;;;;;;;2.13;1.05;;;;;;;;;;5051692;28;20049;-84
2023/09/30 14:14:33;;;;;;;2.85;1.00;;;;;;;;;;5071886;28;20094;-85
2023/09/30 14:17:00;;;;;;;2.45;1.00;;;;;;;;;;5075931;28;20047;-81
2023/09/30 14:19:28;;;;;;;2.08;1.10;;;;;;;;;;5092487;28;20486;-83
2023/09/30 14:21:56;;;;;;;2.30;1.08;;;;;;;;;;5092530;28;20100;-84
2023/09/30 14:24:23;;;;;;;2.30;1.00;;;;;;;;;;5094168;28;20094;-86
2023/09/30 14:26:49;;;;;;;1.77;1.00;;;;;;;;;;5092451;28;20067;-86
2023/09/30 14:29:16;;;;;;;2.13;1.20;;;;;;;;;;5093124;28;20051;-84
2023/09/30 14:31:43;;;;;;;2.45;1.00;;;;;;;;;;5093167;28;20396;-77
2023/09/30 14:34:10;;;;;;;2.00;0.90;;;;;;;;;;5093862;28;20052;-86
2023/09/30 14:36:37;;;;;;;2.40;1.10;;;;;;;;;;5094821;28;20325;-85
2023/09/30 14:39:05;;;;;;;1.60;0.95;;;;;;;;;;5094769;28;20089;-80
2023/09/30 14:41:41;;;;;;;1.80;1.00;;;;;;;;;;5096384;28;20044;-84
2023/09/30 14:44:08;;;;;;;1.98;0.98;;;;;;;;;;5091728;28;20572;-87
2023/09/30 14:46:35;;;;;;;2.22;1.08;;;;;;;;;;5091927;28;20416;-85
2023/09/30 14:49:02;;;;;;;2.20;0.90;;;;;;;;;;5091496;28;20109;-87
2023/09/30 14:51:29;;;;;;;2.75;1.08;;;;;;;;;;5090133;28;20080;-79